El Dorado International Airport
SKBO : now visible

Airfield :











YOU CAN JOIN US ON...

 
LOGIN :

Register | Disclaimer

   EN    FR    IT 

 









Legend :    VFR   Marginal VFR   IFR   Intensive IFR   Very Intensive IFR
Visi :
Ceiling :
>= 8 km
>= 3000ft
5 to 8 km
1000 to 3000 ft
1500m to 5 km
500 to 1000 ft
800 to 1500m
200 to 500 ft
< 800m
< 200 ft
Symbols :   Thunderstorms  Fog  Heavy snow  Heavy precipitations  Wind > 20 kt






- Airport Elevation : 8361 ft
- IATA code : BOG


SKBO - El Dorado International

CURRENT METAR :
  • 260100Z 01003KT 9999 VCSH SCT015 SCT070 15/12 A3031 NOSIG RMK VCSH/N

EXPIRED METARs :
  • 260000Z VRB02KT 9000 VCSH SCT015 BKN070 15/12 A3029 NOSIG RMK LTNG/W
  • 252300Z 33003KT 9999 VCSH FEW015CB SCT017 BKN070 16/12 NOSIG RMK CB/W VCSH/SE LTNG/W

TAF TAF SKBO
Valid from the 26 at 00:00 until the 27 at 00:00 UTC


252230Z 2600/2624 27011KT 8000 SCT017CB BKN070
TEMPO 2600/2602 VCTS
BECMG 2602/2604 VRB02KT BKN020
PROB40
TEMPO 2603/2606 5000 DZRA
PROB40
TEMPO 2608/2613 2000 BR
BECMG 2620/2622 25007KT TX21/2618Z TN11/2611Z



MET'MAP, your aeronautical weather chart ! - Copyright ORBIFLY December 2007 - Disclaimer

ORBIFLY MET'MAP TEAM :

Programming & Development : Alexandra Zaïnal
Concept & original design : Baudouin d'Aumeries
Assistance for programming : Marc-Olivier Méhu
Technical & hardware support : Manuel Goepfert

Contact : metmap@orbifly.com




SOURCES & CREDITS :

   NOAA       Earth
Advisory